Time;durP1;ratioP1;P1;durP2;ratioP2;P2;SDS_P1;SDS_P2;PMS_P1;PMS_P2;Temp;Humidity;BMP_temperature;BMP_pressure;BME280_temperature;BME280_humidity;BME280_pressure;Samples;Min_cycle;Max_cycle;Signal;HPM_P1;HPM_P2
2023/07/12 00:01:14;;;;;;;10.32;4.35;;;;;;;23.67;72.32;100032.31;4147671;28;20084;-65
2023/07/12 00:03:18;;;;;;;10.88;4.10;;;;;;;23.65;72.45;100029.75;4181486;28;20558;-65
2023/07/12 00:05:21;;;;;;;8.65;3.67;;;;;;;23.60;72.42;100028.25;4179276;28;20060;-65
2023/07/12 00:07:24;;;;;;;7.45;3.40;;;;;;;23.46;71.97;100035.03;4164075;28;20426;-64
2023/07/12 00:09:28;;;;;;;11.18;4.38;;;;;;;23.42;72.42;100041.44;4181586;28;20071;-64
2023/07/12 00:11:31;;;;;;;7.40;4.32;;;;;;;23.35;72.92;100053.28;4181588;28;20131;-64
2023/07/12 00:13:34;;;;;;;7.47;3.85;;;;;;;23.40;72.93;100048.59;4181397;28;20041;-64
2023/07/12 00:15:37;;;;;;;4.05;3.10;;;;;;;23.33;73.10;100065.72;4176923;28;20033;-64
2023/07/12 00:17:39;;;;;;;10.10;4.40;;;;;;;23.42;72.64;100056.50;4180427;28;20056;-64
2023/07/12 00:19:42;;;;;;;7.47;3.50;;;;;;;23.36;72.21;100060.28;4166415;28;20483;-64
2023/07/12 00:21:46;;;;;;;8.85;3.97;;;;;;;23.30;72.61;100068.53;4180069;28;20045;-64
2023/07/12 00:23:49;;;;;;;6.50;3.33;;;;;;;23.30;72.15;100068.53;4166356;28;20088;-64
2023/07/12 00:25:53;;;;;;;11.93;3.65;;;;;;;23.29;72.21;100067.66;4176417;28;20033;-64
2023/07/12 00:27:56;;;;;;;8.10;3.92;;;;;;;23.16;72.23;100066.50;4165861;28;20048;-65
2023/07/12 00:29:59;;;;;;;11.40;4.18;;;;;;;23.08;73.02;100069.44;4170971;28;20040;-64
2023/07/12 00:32:02;;;;;;;6.90;3.42;;;;;;;23.07;73.19;100066.84;4180381;28;20102;-64
2023/07/12 00:34:06;;;;;;;5.82;3.38;;;;;;;22.96;73.39;100057.59;4169214;28;20116;-65
2023/07/12 00:36:12;;;;;;;6.43;2.83;;;;;;;22.93;73.31;100056.88;4148262;28;20592;-64
2023/07/12 00:38:19;;;;;;;10.38;4.10;;;;;;;22.94;73.75;100059.44;4169556;28;20037;-64
2023/07/12 00:41:00;;;;;;;5.45;2.80;;;;;;;22.83;73.61;100049.28;4168654;28;20523;-65
2023/07/12 00:43:16;;;;;;;5.97;3.00;;;;;;;22.70;74.40;100048.09;4177248;28;20041;-65
2023/07/12 00:45:19;;;;;;;8.85;3.90;;;;;;;22.89;73.81;100040.22;4172565;28;20078;-65
2023/07/12 00:47:22;;;;;;;5.30;3.05;;;;;;;22.80;74.40;100056.53;4162182;28;20064;-65
2023/07/12 00:49:28;;;;;;;5.45;3.00;;;;;;;22.87;74.18;100046.50;4170595;28;20515;-65
2023/07/12 00:51:39;;;;;;;8.43;3.83;;;;;;;22.79;74.12;100044.19;4171365;28;20433;-65
2023/07/12 00:53:42;;;;;;;8.60;3.72;;;;;;;22.72;74.80;100042.75;4170097;28;20064;-65
2023/07/12 00:56:00;;;;;;;7.13;3.50;;;;;;;22.81;74.31;100042.38;4166292;28;20123;-65
2023/07/12 00:58:03;;;;;;;5.15;3.50;;;;;;;22.94;73.65;100050.63;4170436;28;20048;-65
2023/07/12 01:00:11;;;;;;;9.48;3.65;;;;;;;22.84;73.99;100052.84;4179034;28;20044;-65
2023/07/12 01:02:16;;;;;;;5.18;3.35;;;;;;;22.81;74.20;100055.63;4179180;28;20043;-64
2023/07/12 01:04:22;;;;;;;8.40;3.47;;;;;;;22.84;73.89;100050.19;4156751;28;20052;-65
2023/07/12 01:06:25;;;;;;;6.00;3.50;;;;;;;22.85;73.92;100049.22;4170144;28;20057;-65
2023/07/12 01:08:29;;;;;;;4.85;3.28;;;;;;;22.85;74.12;100051.88;4153374;28;20136;-64
2023/07/12 01:10:32;;;;;;;5.50;3.00;;;;;;;22.87;74.05;100052.69;4179813;28;20041;-65
2023/07/12 01:12:36;;;;;;;8.05;2.60;;;;;;;22.65;73.74;100048.31;4167179;28;20041;-64
2023/07/12 01:14:40;;;;;;;5.60;3.05;;;;;;;22.67;74.06;100045.59;4169464;28;20041;-64
2023/07/12 01:16:49;;;;;;;5.32;2.88;;;;;;;22.61;74.37;100041.41;4156622;28;20474;-64
2023/07/12 01:18:53;;;;;;;6.20;3.45;;;;;;;22.67;74.12;100037.66;4149124;28;20049;-64
2023/07/12 01:21:09;;;;;;;5.28;2.70;;;;;;;22.73;73.83;100040.03;4179772;28;20048;-65
2023/07/12 01:23:13;;;;;;;7.97;3.92;;;;;;;22.74;73.62;100038.25;4179482;28;20398;-64
2023/07/12 01:25:16;;;;;;;5.03;3.13;;;;;;;22.72;74.11;100046.28;4166578;28;20030;-64
2023/07/12 01:27:24;;;;;;;5.30;2.95;;;;;;;22.74;73.70;100048.84;4179375;28;20041;-65
2023/07/12 01:29:28;;;;;;;6.80;2.95;;;;;;;22.88;73.08;100043.81;4146220;28;20064;-65
2023/07/12 01:31:31;;;;;;;;;;;;;;;22.63;73.27;100041.34;4133026;28;20064;-64
2023/07/12 01:33:33;;;;;;;7.93;3.20;;;;;;;22.66;73.72;100033.25;4146565;28;20020;-64
2023/07/12 01:35:36;;;;;;;5.90;3.25;;;;;;;22.78;73.66;100030.09;4145673;28;20038;-65
2023/07/12 01:37:39;;;;;;;5.53;3.33;;;;;;;22.79;73.79;100028.31;4146019;28;20038;-65
2023/07/12 01:39:42;;;;;;;6.97;3.90;;;;;;;22.76;73.28;100018.69;4163951;28;20509;-65
2023/07/12 01:41:46;;;;;;;4.85;2.88;;;;;;;22.72;73.60;100014.47;4152739;28;20045;-65
2023/07/12 01:43:49;;;;;;;5.82;2.95;;;;;;;22.68;73.78;100010.22;4162235;28;20048;-65
2023/07/12 01:45:51;;;;;;;5.72;3.50;;;;;;;22.76;73.97;100012.53;4180204;28;20052;-64
2023/07/12 01:47:55;;;;;;;7.13;3.58;;;;;;;22.78;73.71;100000.94;4154023;28;20053;-65
2023/07/12 01:49:58;;;;;;;7.57;3.10;;;;;;;22.70;74.22;99999.56;4146371;28;20038;-65
2023/07/12 01:52:02;;;;;;;7.95;3.13;;;;;;;22.79;73.49;99991.19;4146372;28;20411;-65
2023/07/12 01:54:07;;;;;;;7.35;3.08;;;;;;;22.72;73.66;99980.03;4145796;28;20045;-64
2023/07/12 01:56:11;;;;;;;6.28;3.35;;;;;;;22.72;73.53;99972.06;4146513;28;20076;-66
2023/07/12 01:58:13;;;;;;;10.02;3.47;;;;;;;22.75;73.64;99974.59;4146402;28;20041;-65
2023/07/12 02:00:16;;;;;;;5.82;3.20;;;;;;;22.72;73.94;99969.44;4130020;28;20053;-65
2023/07/12 02:02:20;;;;;;;5.00;2.95;;;;;;;22.71;73.78;99966.84;4153593;28;20045;-65
2023/07/12 02:04:23;;;;;;;5.43;2.95;;;;;;;22.71;74.21;99972.16;4145530;28;20053;-65
2023/07/12 02:06:26;;;;;;;10.38;3.80;;;;;;;22.72;74.40;99973.84;4144957;28;20457;-64
2023/07/12 02:08:29;;;;;;;9.75;3.33;;;;;;;22.69;74.57;99968.69;4180236;28;20060;-65
2023/07/12 02:10:32;;;;;;;4.70;3.20;;;;;;;22.72;74.54;99969.44;4162575;28;20049;-65
2023/07/12 02:12:35;;;;;;;7.65;3.50;;;;;;;22.72;74.68;99969.44;4162495;28;20068;-65
2023/07/12 02:14:38;;;;;;;4.97;2.95;;;;;;;22.71;74.81;99965.03;4162021;28;20046;-65
2023/07/12 02:16:41;;;;;;;7.80;3.53;;;;;;;22.77;74.10;99963.91;4162556;28;20069;-65
2023/07/12 02:18:44;;;;;;;5.88;3.13;;;;;;;22.71;74.10;99956.25;4162217;28;20045;-65
2023/07/12 02:20:47;;;;;;;7.38;3.53;;;;;;;22.64;74.21;99960.94;4162378;28;20438;-66
2023/07/12 02:22:51;;;;;;;6.93;3.17;;;;;;;22.73;73.72;99949.06;4179885;28;20437;-65
2023/07/12 02:24:54;;;;;;;5.53;3.63;;;;;;;22.62;73.93;99954.88;4178300;28;20116;-64
2023/07/12 02:26:58;;;;;;;7.38;3.45;;;;;;;22.54;74.39;99955.16;4166425;28;20064;-64
2023/07/12 02:29:01;;;;;;;6.47;2.90;;;;;;;22.54;74.56;99951.69;4148430;28;20511;-64
2023/07/12 02:31:20;;;;;;;9.05;3.95;;;;;;;22.59;74.05;99949.66;4173868;28;20398;-64
2023/07/12 02:33:23;;;;;;;7.85;3.33;;;;;;;22.72;73.12;99950.00;4163707;28;20059;-64
2023/07/12 02:35:29;;;;;;;7.53;3.28;;;;;;;22.60;73.75;99944.31;4165674;28;20117;-64
2023/07/12 02:37:32;;;;;;;5.80;2.80;;;;;;;22.56;73.76;99941.84;4178470;28;20132;-64
2023/07/12 02:39:35;;;;;;;5.63;3.20;;;;;;;22.53;73.71;99945.53;4179040;28;20037;-63
2023/07/12 02:41:37;;;;;;;7.82;3.13;;;;;;;22.50;73.85;99940.34;4166515;28;20491;-64
2023/07/12 02:43:41;;;;;;;10.80;3.45;;;;;;;22.51;73.66;99942.06;4178911;28;20577;-64
2023/07/12 02:45:47;;;;;;;7.82;3.65;;;;;;;22.55;73.81;99932.22;4177964;28;20530;-64
2023/07/12 02:47:51;;;;;;;7.60;3.60;;;;;;;22.54;73.47;99933.97;4180149;28;20087;-64
2023/07/12 02:49:53;;;;;;;6.45;3.10;;;;;;;22.53;73.58;99932.28;4181709;28;20043;-64
2023/07/12 02:51:56;;;;;;;5.28;2.85;;;;;;;22.47;73.98;99932.53;4180843;28;20041;-64
2023/07/12 02:53:59;;;;;;;6.47;3.45;;;;;;;22.48;74.01;99934.25;4181839;28;20068;-65
2023/07/12 02:56:03;;;;;;;8.57;3.65;;;;;;;22.44;73.79;99937.97;4182886;28;20425;-64
2023/07/12 02:58:06;;;;;;;8.82;3.40;;;;;;;22.45;74.16;99931.75;4161400;28;20038;-64
2023/07/12 03:00:11;;;;;;;6.10;3.20;;;;;;;22.45;74.13;99939.69;4166080;28;20034;-64
2023/07/12 03:02:14;;;;;;;6.72;3.05;;;;;;;22.42;73.97;99939.81;4166373;28;20045;-64
2023/07/12 03:04:18;;;;;;;12.93;3.13;;;;;;;22.43;73.83;99950.34;4165441;28;20047;-64
2023/07/12 03:06:21;;;;;;;5.70;3.03;;;;;;;22.42;74.10;99939.81;4148714;28;20042;-64
2023/07/12 03:08:24;;;;;;;6.38;3.65;;;;;;;22.47;73.64;99953.72;4166301;28;20042;-64
2023/07/12 03:10:27;;;;;;;5.53;3.38;;;;;;;22.43;73.66;99954.81;4174491;28;20069;-64
2023/07/12 03:12:29;;;;;;;8.38;3.33;;;;;;;22.39;73.84;99962.00;4164856;28;20141;-64
2023/07/12 03:14:32;;;;;;;8.02;3.25;;;;;;;22.34;73.90;99963.13;4163958;28;20050;-64
2023/07/12 03:16:37;;;;;;;6.28;3.25;;;;;;;22.34;73.86;99955.19;4182495;28;20076;-64
2023/07/12 03:18:39;;;;;;;;;;;;;;;22.22;74.19;99960.03;4182951;28;20432;-64
2023/07/12 03:20:42;;;;;;;7.85;3.15;;;;;;;22.25;74.08;99965.22;4164482;28;19925;-65
2023/07/12 03:22:45;;;;;;;6.43;3.33;;;;;;;22.20;74.29;99955.75;4164840;28;20041;-64
2023/07/12 03:24:48;;;;;;;7.18;3.33;;;;;;;22.17;74.31;99959.38;4181816;28;20056;-64
2023/07/12 03:26:51;;;;;;;6.40;3.53;;;;;;;22.19;74.32;99952.22;4182109;28;20481;-64
2023/07/12 03:28:55;;;;;;;6.10;3.00;;;;;;;22.22;74.27;99957.38;4182108;28;20131;-65
2023/07/12 03:31:00;;;;;;;7.97;2.97;;;;;;;22.25;74.24;99954.63;4164336;28;20136;-64
2023/07/12 03:33:04;;;;;;;4.88;3.33;;;;;;;22.24;74.48;99957.31;4182564;28;20065;-64
2023/07/12 03:35:07;;;;;;;;;;;;;;;22.18;74.45;99950.53;4164345;28;20518;-64
2023/07/12 03:37:11;;;;;;;5.03;2.95;;;;;;;22.24;74.05;99952.91;4181949;28;19921;-64
2023/07/12 03:39:15;;;;;;;6.53;3.58;;;;;;;22.37;73.45;99950.63;4182213;28;20051;-64
2023/07/12 03:41:20;;;;;;;7.80;2.93;;;;;;;22.20;74.11;99951.31;4181992;28;20549;-64
2023/07/12 03:43:23;;;;;;;7.95;3.70;;;;;;;22.17;74.38;99942.63;4182072;28;20410;-64
2023/07/12 03:45:26;;;;;;;8.15;3.50;;;;;;;22.16;74.42;99948.84;4180468;28;20041;-64
2023/07/12 03:47:29;;;;;;;7.95;3.75;;;;;;;22.19;74.31;99957.50;4181759;28;20037;-64
2023/07/12 03:49:34;;;;;;;7.07;3.72;;;;;;;22.30;73.73;99955.28;4164309;28;20323;-59
2023/07/12 03:51:37;;;;;;;7.40;3.63;;;;;;;22.45;73.37;99959.09;4178018;28;20033;-59
2023/07/12 03:53:38;;;;;;;9.02;3.80;;;;;;;22.72;72.54;99947.34;4176881;28;20064;-58
2023/07/12 03:55:43;;;;;;;7.90;3.28;;;;;;;22.73;72.43;99962.31;4170593;28;20095;-58
2023/07/12 03:57:46;;;;;;;;;;;;;;;22.77;72.19;99961.25;4171584;28;20037;-58
2023/07/12 03:59:48;;;;;;;10.75;3.80;;;;;;;22.90;71.77;99962.44;4180939;28;20015;-58
2023/07/12 04:01:51;;;;;;;4.65;2.85;;;;;;;22.98;71.16;99955.00;4178475;28;20430;-59
2023/07/12 04:03:54;;;;;;;5.53;3.42;;;;;;;22.86;71.47;99966.16;4157153;28;20045;-59
2023/07/12 04:05:58;;;;;;;9.65;3.95;;;;;;;22.90;71.59;99973.03;4176725;28;20553;-59
2023/07/12 04:08:02;;;;;;;9.93;4.70;;;;;;;22.91;71.21;99980.06;4181507;28;20436;-58
2023/07/12 04:10:06;;;;;;;;;;;;;;;22.74;72.13;99990.56;4147728;28;20061;-59
2023/07/12 04:12:10;;;;;;;9.45;2.88;;;;;;;22.76;72.26;99986.03;4180295;28;19927;-59
2023/07/12 04:14:12;;;;;;;7.10;4.00;;;;;;;22.79;71.83;99985.91;4179835;28;20044;-59
2023/07/12 04:16:15;;;;;;;6.90;3.70;;;;;;;22.65;72.71;99989.16;4171926;28;20037;-59
2023/07/12 04:18:18;;;;;;;8.27;4.00;;;;;;;22.55;73.06;99999.28;4172610;28;20399;-59
2023/07/12 04:20:21;;;;;;;11.05;4.60;;;;;;;22.56;72.94;100010.75;4180529;28;20046;-59
2023/07/12 04:26:05;;;;;;;8.80;4.07;;;;;;;22.44;73.59;100012.13;4176941;28;20052;-61
2023/07/12 04:28:08;;;;;;;6.43;3.80;;;;;;;22.48;73.46;100029.63;4180833;28;20439;-67
2023/07/12 04:30:13;;;;;;;8.93;4.30;;;;;;;22.34;73.93;100016.97;4179982;28;20124;-68
2023/07/12 04:32:17;;;;;;;10.57;5.03;;;;;;;22.27;74.29;100021.63;4177214;28;20045;-66
2023/07/12 04:34:23;;;;;;;8.77;3.97;;;;;;;22.25;74.75;100026.13;4163205;28;20136;-66
2023/07/12 04:36:42;;;;;;;13.60;4.80;;;;;;;22.24;74.99;100027.03;4163732;28;20068;-65
2023/07/12 04:38:47;;;;;;;9.13;3.95;;;;;;;22.22;74.97;100034.16;4146573;28;20049;-65
2023/07/12 04:40:54;;;;;;;9.43;4.78;;;;;;;22.41;74.72;100036.09;4164861;28;20052;-65
2023/07/12 04:42:56;;;;;;;11.27;4.40;;;;;;;22.39;74.92;100030.00;4164701;28;20037;-65
2023/07/12 04:44:59;;;;;;;8.07;3.88;;;;;;;22.41;74.83;100041.41;4130247;28;20070;-67
2023/07/12 04:47:02;;;;;;;8.65;4.47;;;;;;;22.49;74.76;100037.50;4164655;28;20044;-67
2023/07/12 04:49:05;;;;;;;8.18;4.10;;;;;;;22.56;74.94;100037.22;4164622;28;20053;-66
2023/07/12 04:51:08;;;;;;;8.00;4.45;;;;;;;22.65;74.62;100044.81;4164456;28;20053;-67
2023/07/12 04:53:12;;;;;;;6.15;3.83;;;;;;;22.61;74.80;100045.88;4147618;28;20144;-66
2023/07/12 04:55:24;;;;;;;8.57;3.35;;;;;;;22.72;74.42;100056.88;4163871;28;20038;-67
2023/07/12 04:57:27;;;;;;;7.95;4.70;;;;;;;22.75;74.24;100070.00;4164446;28;20042;-66
2023/07/12 04:59:30;;;;;;;6.57;3.67;;;;;;;22.75;74.15;100079.72;4146955;28;20050;-67
2023/07/12 05:01:34;;;;;;;8.90;3.97;;;;;;;22.82;74.39;100092.66;4164382;28;20124;-67
2023/07/12 05:03:37;;;;;;;14.60;4.70;;;;;;;22.86;73.98;100088.06;4172602;28;20041;-66
2023/07/12 05:05:40;;;;;;;7.80;4.03;;;;;;;22.92;73.68;100100.19;4152232;28;20049;-68
2023/07/12 05:08:08;;;;;;;9.32;4.63;;;;;;;22.93;73.04;100097.50;4162204;28;20693;-63
2023/07/12 05:10:11;;;;;;;11.52;4.82;;;;;;;22.86;73.79;100098.66;4176956;28;20037;-63
2023/07/12 05:12:15;;;;;;;9.55;4.40;;;;;;;22.93;73.44;100091.34;4169040;28;20051;-63
2023/07/12 05:14:18;;;;;;;7.47;4.72;;;;;;;22.93;73.39;100094.84;4175320;28;20061;-63
2023/07/12 05:16:21;;;;;;;9.07;3.92;;;;;;;22.98;73.21;100099.94;4178544;28;20056;-63
2023/07/12 05:18:24;;;;;;;7.60;3.63;;;;;;;23.07;73.47;100117.22;4162836;28;20035;-63
2023/07/12 05:20:28;;;;;;;11.07;4.38;;;;;;;23.12;72.96;100120.59;4170500;28;20052;-63
2023/07/12 05:22:31;;;;;;;9.77;4.65;;;;;;;23.11;72.67;100124.16;4177094;28;20103;-63
2023/07/12 05:24:34;;;;;;;10.32;4.20;;;;;;;23.08;72.75;100124.28;4155988;28;20501;-62
2023/07/12 05:26:36;;;;;;;8.63;4.18;;;;;;;23.05;72.99;100130.56;4163106;28;20426;-63
2023/07/12 05:28:41;;;;;;;10.23;3.92;;;;;;;22.99;73.65;100125.53;4174706;28;20037;-63
2023/07/12 05:30:44;;;;;;;6.30;4.18;;;;;;;23.02;73.21;100122.75;4172135;28;20067;-62
2023/07/12 05:32:47;;;;;;;13.85;4.75;;;;;;;22.95;73.64;100118.63;4153423;28;20526;-62
2023/07/12 05:34:50;;;;;;;8.93;3.88;;;;;;;23.00;73.53;100117.50;4177824;28;21479;-63
2023/07/12 05:36:53;;;;;;;8.73;5.15;;;;;;;23.02;72.88;100128.03;4180335;28;20402;-63
2023/07/12 05:38:56;;;;;;;12.45;4.60;;;;;;;23.07;72.77;100122.53;4174405;28;20064;-63
2023/07/12 05:40:59;;;;;;;7.30;4.05;;;;;;;23.15;72.76;100136.38;4179932;28;20044;-63
2023/07/12 05:43:02;;;;;;;8.60;4.70;;;;;;;23.20;72.70;100144.13;4178858;28;20398;-63
2023/07/12 05:45:08;;;;;;;9.45;4.40;;;;;;;23.22;72.12;100145.78;4177706;28;20047;-63
2023/07/12 05:47:11;;;;;;;10.07;3.40;;;;;;;23.18;72.29;100142.38;4177710;28;20043;-63
2023/07/12 05:49:14;;;;;;;12.95;5.15;;;;;;;23.31;72.46;100137.41;4178257;28;20029;-63
2023/07/12 05:51:16;;;;;;;9.13;4.50;;;;;;;23.41;71.54;100134.34;4179995;28;20036;-63
2023/07/12 05:53:20;;;;;;;9.90;4.15;;;;;;;23.49;71.68;100137.53;4179095;28;20116;-63
2023/07/12 05:55:22;;;;;;;7.50;4.15;;;;;;;23.53;71.50;100132.00;4169918;28;20076;-63
2023/07/12 05:57:26;;;;;;;11.98;4.38;;;;;;;23.61;71.60;100133.47;4169067;28;20068;-63
2023/07/12 05:59:29;;;;;;;10.38;4.43;;;;;;;23.69;71.20;100123.38;4178095;28;20120;-62
2023/07/12 06:01:34;;;;;;;8.07;3.97;;;;;;;23.79;70.94;100123.81;4153966;28;20144;-63
2023/07/12 06:03:37;;;;;;;;;;;;;;;23.82;70.65;100127.19;4173812;28;20124;-63
2023/07/12 06:05:44;;;;;;;11.38;3.55;;;;;;;23.82;70.53;100137.78;4173718;28;19967;-62
2023/07/12 06:07:47;;;;;;;8.07;3.63;;;;;;;23.88;70.37;100136.69;4172740;28;20037;-63
2023/07/12 06:09:50;;;;;;;6.68;3.58;;;;;;;23.94;70.26;100141.69;4173673;28;20051;-63
2023/07/12 06:11:53;;;;;;;6.28;3.67;;;;;;;24.00;70.24;100140.56;4172776;28;20045;-63
2023/07/12 06:13:56;;;;;;;10.80;5.15;;;;;;;24.02;70.70;100144.88;4152204;28;20468;-63
2023/07/12 06:15:58;;;;;;;7.05;4.03;;;;;;;23.97;70.45;100146.88;4170925;28;20065;-62
2023/07/12 06:18:03;;;;;;;12.43;5.07;;;;;;;23.98;69.82;100148.59;4178492;28;20029;-63
2023/07/12 06:20:07;;;;;;;8.10;4.00;;;;;;;23.91;70.12;100146.31;4162446;28;20088;-63
2023/07/12 06:22:10;;;;;;;;;;;;;;;23.85;70.54;100148.25;4179931;28;20049;-63
2023/07/12 06:24:13;;;;;;;8.13;4.25;;;;;;;23.85;70.71;100147.41;4181442;28;19921;-63
2023/07/12 06:26:16;;;;;;;8.55;4.20;;;;;;;23.97;70.60;100146.88;4183199;28;20063;-63
2023/07/12 06:28:19;;;;;;;8.60;4.05;;;;;;;24.14;70.25;100142.56;4180977;28;20037;-63
2023/07/12 06:30:22;;;;;;;9.77;4.18;;;;;;;24.14;70.43;100139.91;4177273;28;20112;-63
2023/07/12 06:32:25;;;;;;;6.70;4.07;;;;;;;24.17;70.33;100148.59;4172539;28;20402;-63
2023/07/12 06:34:30;;;;;;;10.15;4.40;;;;;;;24.26;70.25;100136.66;4157414;28;20049;-62
2023/07/12 06:36:33;;;;;;;;;;;;;;;24.28;70.03;100145.41;4180875;28;20059;-63
2023/07/12 06:38:36;;;;;;;7.97;4.72;;;;;;;24.38;68.89;100141.38;4167655;28;20010;-63
2023/07/12 06:40:39;;;;;;;10.27;5.10;;;;;;;24.45;68.24;100143.75;4175509;28;20124;-63
2023/07/12 06:42:42;;;;;;;13.02;4.70;;;;;;;24.54;68.15;100140.63;4180470;28;20466;-63
2023/07/12 06:44:45;;;;;;;8.93;4.72;;;;;;;24.63;68.19;100137.53;4168469;28;20075;-63
2023/07/12 06:46:48;;;;;;;7.82;4.93;;;;;;;24.74;67.69;100147.66;4182024;28;20120;-62
2023/07/12 06:48:51;;;;;;;7.38;4.95;;;;;;;24.81;67.31;100148.19;4161730;28;20060;-63
2023/07/12 06:50:58;;;;;;;9.32;4.50;;;;;;;24.95;66.65;100148.38;4164177;28;20041;-62
2023/07/12 06:53:01;;;;;;;7.72;4.75;;;;;;;25.07;65.96;100152.19;4183058;28;20037;-62
2023/07/12 06:55:04;;;;;;;10.25;5.30;;;;;;;25.09;65.91;100158.31;4181979;28;20414;-62
2023/07/12 06:57:07;;;;;;;8.65;4.57;;;;;;;25.19;65.47;100162.22;4181533;28;20048;-62
2023/07/12 06:59:11;;;;;;;10.00;4.97;;;;;;;25.30;65.46;100158.16;4181551;28;20545;-63
2023/07/12 07:01:14;;;;;;;7.97;4.40;;;;;;;25.24;65.40;100160.16;4165370;28;20392;-62
2023/07/12 07:03:18;;;;;;;10.20;4.65;;;;;;;25.21;65.25;100157.69;4163990;28;20120;-62
2023/07/12 07:05:21;;;;;;;9.68;4.50;;;;;;;25.09;65.59;100167.16;4170262;28;20029;-63
2023/07/12 07:07:25;;;;;;;11.10;5.28;;;;;;;25.18;65.08;100173.81;4181157;28;20044;-62
2023/07/12 07:09:28;;;;;;;;;;;;;;;24.97;64.69;100165.13;4174569;28;20503;-62
2023/07/12 07:11:31;;;;;;;11.20;5.03;;;;;;;24.97;64.82;100170.44;4182530;28;20298;-62
2023/07/12 07:13:34;;;;;;;11.50;5.00;;;;;;;25.07;64.80;100170.81;4179496;28;20037;-62
2023/07/12 07:15:37;;;;;;;9.60;5.00;;;;;;;25.03;64.84;100171.94;4163646;28;20236;-63
2023/07/12 07:17:40;;;;;;;9.88;5.63;;;;;;;25.05;64.92;100175.38;4176301;28;20510;-63
2023/07/12 07:19:43;;;;;;;9.38;5.40;;;;;;;24.95;64.85;100180.28;4181923;28;20243;-64
2023/07/12 07:21:48;;;;;;;13.75;6.80;;;;;;;25.12;63.92;100183.91;4179583;28;20041;-64
2023/07/12 07:23:53;;;;;;;12.02;5.32;;;;;;;24.98;63.58;100181.94;4181501;28;20037;-63
2023/07/12 07:26:02;;;;;;;11.07;5.72;;;;;;;24.94;64.13;100181.25;4159752;28;20044;-64
2023/07/12 07:28:05;;;;;;;10.25;5.10;;;;;;;24.92;64.44;100178.63;4157294;28;20042;-63
2023/07/12 07:30:09;;;;;;;9.65;5.88;;;;;;;25.01;64.85;100172.00;4174866;28;20041;-63
2023/07/12 07:32:12;;;;;;;11.80;5.75;;;;;;;24.96;64.50;100192.66;4171798;28;20044;-66
2023/07/12 07:34:15;;;;;;;10.43;5.55;;;;;;;25.09;64.39;100185.78;4171973;28;20092;-62
2023/07/12 07:36:18;;;;;;;9.35;5.82;;;;;;;25.20;63.41;100195.00;4169115;28;20044;-62
2023/07/12 07:38:28;;;;;;;11.10;6.00;;;;;;;25.22;63.61;100191.34;4175705;28;20556;-63
2023/07/12 07:40:32;;;;;;;10.52;5.60;;;;;;;25.28;63.10;100192.81;4173630;28;20041;-62
2023/07/12 07:42:35;;;;;;;;;;;;;;;25.11;63.13;100183.03;4157954;28;20041;-62
2023/07/12 07:44:39;;;;;;;11.05;5.88;;;;;;;25.20;63.37;100184.38;4169596;28;19937;-63
2023/07/12 07:46:42;;;;;;;10.35;5.93;;;;;;;25.37;62.71;100181.72;4172188;28;20068;-63
2023/07/12 07:48:45;;;;;;;9.35;5.38;;;;;;;25.45;62.09;100181.31;4172701;28;20045;-62
2023/07/12 07:50:48;;;;;;;9.98;5.25;;;;;;;25.53;61.49;100186.25;4172007;28;20156;-63
2023/07/12 07:52:53;;;;;;;12.02;5.07;;;;;;;25.67;61.21;100191.72;4173007;28;20394;-62
2023/07/12 07:54:55;;;;;;;;;;;;;;;25.79;61.15;100190.19;4174166;28;20037;-63
2023/07/12 07:56:59;;;;;;;7.70;4.93;;;;;;;25.93;60.38;100184.09;4172450;28;20008;-63
2023/07/12 07:59:02;;;;;;;;;;;;;;;26.02;60.64;100185.44;4173405;28;20541;-63
2023/07/12 08:01:05;;;;;;;9.60;5.90;;;;;;;26.01;60.17;100181.94;4173351;28;19964;-63
2023/07/12 08:03:11;;;;;;;8.07;5.90;;;;;;;26.10;59.10;100178.75;4173228;28;20036;-63
2023/07/12 08:05:15;;;;;;;11.55;5.97;;;;;;;26.20;58.62;100175.59;4156704;28;20491;-63
2023/07/12 08:07:17;;;;;;;9.35;5.82;;;;;;;26.28;58.53;100178.66;4175240;28;20048;-63
2023/07/12 08:09:20;;;;;;;11.00;6.47;;;;;;;26.20;57.75;100178.25;4174419;28;20037;-63
2023/07/12 08:11:23;;;;;;;9.48;6.35;;;;;;;26.22;58.63;100181.69;4175895;28;20032;-62
2023/07/12 08:13:27;;;;;;;9.50;5.72;;;;;;;26.36;57.74;100179.13;4170617;28;20065;-63
2023/07/12 08:15:30;;;;;;;;;;;;;;;26.43;57.30;100185.81;4172200;28;20045;-63
2023/07/12 08:17:33;;;;;;;11.68;4.90;;;;;;;26.58;57.37;100180.56;4168426;28;20310;-63
2023/07/12 08:19:36;;;;;;;11.20;5.78;;;;;;;26.69;56.18;100191.50;4174453;28;20041;-63
2023/07/12 08:21:39;;;;;;;14.15;5.00;;;;;;;26.82;55.95;100191.66;4184297;22;20439;-65
2023/07/12 08:23:42;;;;;;;11.10;4.90;;;;;;;26.87;55.80;100194.03;4195741;28;20041;-63
2023/07/12 08:25:45;;;;;;;8.85;4.80;;;;;;;26.81;54.78;100196.13;4197777;28;20051;-63
2023/07/12 08:27:48;;;;;;;13.18;5.18;;;;;;;26.91;55.29;100195.59;4197512;28;20033;-63
2023/07/12 08:29:52;;;;;;;8.00;4.85;;;;;;;26.83;55.20;100196.03;4197656;28;20378;-63
2023/07/12 08:31:55;;;;;;;;;;;;;;;26.54;56.01;100203.88;4198228;28;20420;-63
2023/07/12 08:33:58;;;;;;;7.97;4.97;;;;;;;26.43;55.53;100196.47;4179053;28;19948;-63
2023/07/12 08:36:01;;;;;;;7.10;4.85;;;;;;;26.72;55.52;100191.34;4197254;28;20398;-63
2023/07/12 08:38:03;;;;;;;11.23;5.15;;;;;;;26.77;55.38;100189.25;4177322;28;20110;-63
2023/07/12 08:40:07;;;;;;;8.57;4.15;;;;;;;26.61;55.21;100194.56;4191534;28;20028;-63
2023/07/12 08:42:12;;;;;;;8.75;4.05;;;;;;;26.67;54.53;100203.19;4196112;28;20067;-63
2023/07/12 08:44:15;;;;;;;6.88;4.40;;;;;;;26.45;55.08;100205.25;4196809;28;20047;-63
2023/07/12 08:46:23;;;;;;;11.60;4.63;;;;;;;26.37;55.21;100207.50;4197137;28;20135;-63
2023/07/12 08:48:26;;;;;;;7.13;4.65;;;;;;;26.51;53.66;100208.53;4197551;28;20105;-63
2023/07/12 08:50:36;;;;;;;9.20;4.30;;;;;;;26.57;53.91;100208.16;4189209;28;20044;-62
2023/07/12 08:52:40;;;;;;;9.77;4.75;;;;;;;26.47;53.55;100208.69;4188949;28;20072;-63
2023/07/12 08:54:44;;;;;;;8.80;4.60;;;;;;;26.63;53.46;100210.47;4187743;28;20040;-62
2023/07/12 08:56:47;;;;;;;9.23;4.85;;;;;;;26.86;52.14;100208.34;4172960;28;20201;-63
2023/07/12 08:58:53;;;;;;;7.85;5.18;;;;;;;26.92;52.55;100203.50;4194872;28;20064;-63
2023/07/12 09:01:02;;;;;;;10.20;6.78;;;;;;;27.05;52.42;100203.66;4176217;28;20511;-62
2023/07/12 09:03:06;;;;;;;10.25;5.40;;;;;;;27.20;51.96;100201.03;4192793;28;20119;-63
2023/07/12 09:05:22;;;;;;;8.38;5.72;;;;;;;27.22;51.42;100204.44;4189285;28;20036;-62
2023/07/12 09:07:29;;;;;;;10.38;5.18;;;;;;;27.36;50.92;100199.19;4187958;28;20047;-64
2023/07/12 09:09:36;;;;;;;10.10;5.32;;;;;;;27.39;51.31;100201.66;4189273;28;20048;-65
2023/07/12 09:11:40;;;;;;;8.75;5.32;;;;;;;27.41;50.89;100205.13;4172615;28;20041;-66
2023/07/12 09:13:46;;;;;;;11.40;4.75;;;;;;;27.50;51.00;100214.38;4189491;28;20153;-66
2023/07/12 09:15:51;;;;;;;8.50;5.50;;;;;;;27.51;50.39;100211.63;4193559;28;20445;-65
2023/07/12 09:17:54;;;;;;;8.02;4.45;;;;;;;27.27;50.54;100213.06;4165605;28;20124;-66
2023/07/12 09:19:58;;;;;;;6.47;4.97;;;;;;;27.38;50.03;100210.63;4176726;28;20037;-66
2023/07/12 09:22:10;;;;;;;7.75;4.80;;;;;;;27.52;49.45;100207.13;4187484;28;20551;-65
2023/07/12 09:24:20;;;;;;;8.88;4.80;;;;;;;27.63;49.40;100214.50;4171520;28;20091;-65
2023/07/12 09:26:25;;;;;;;8.82;4.90;;;;;;;27.73;48.57;100225.44;4191708;28;20090;-65
2023/07/12 09:28:40;;;;;;;7.82;4.78;;;;;;;27.81;48.65;100223.19;4192561;28;20040;-67
2023/07/12 09:30:43;;;;;;;7.30;5.07;;;;;;;27.86;48.75;100211.25;4189901;28;20070;-66
2023/07/12 09:32:48;;;;;;;9.07;5.00;;;;;;;27.91;48.41;100212.78;4195724;28;20032;-66
2023/07/12 09:34:54;;;;;;;10.38;5.75;;;;;;;28.06;48.64;100217.19;4178583;28;20029;-66
2023/07/12 09:37:00;;;;;;;8.48;5.05;;;;;;;28.09;48.53;100222.34;4195795;28;20032;-66
2023/07/12 09:39:05;;;;;;;6.90;5.00;;;;;;;28.11;48.00;100220.44;4182056;28;20052;-68
2023/07/12 09:41:10;;;;;;;7.47;5.03;;;;;;;28.21;48.44;100212.69;4188436;28;20090;-67
2023/07/12 09:43:17;;;;;;;15.00;5.10;;;;;;;28.36;47.73;100216.22;4192051;28;20119;-67
2023/07/12 09:45:20;;;;;;;11.30;4.75;;;;;;;28.49;46.84;100222.47;4177450;28;20396;-68